sensor_id;sensor_type;location;lat;lon;timestamp;pressure;altitude;pressure_sealevel;temperature;humidity
33280;BME280;20403;43.114;12.434;2023-02-27T00:00:05;98217.63;;;6.56;100.00
33280;BME280;20403;43.114;12.434;2023-02-27T00:02:39;98218.13;;;6.46;100.00
33280;BME280;20403;43.114;12.434;2023-02-27T00:05:05;98213.88;;;6.51;100.00
33280;BME280;20403;43.114;12.434;2023-02-27T00:07:31;98222.88;;;6.49;100.00
33280;BME280;20403;43.114;12.434;2023-02-27T00:09:56;98219.44;;;6.37;100.00
33280;BME280;20403;43.114;12.434;2023-02-27T00:12:22;98221.81;;;6.38;100.00
33280;BME280;20403;43.114;12.434;2023-02-27T00:14:47;98223.13;;;6.29;100.00
33280;BME280;20403;43.114;12.434;2023-02-27T00:17:12;98223.19;;;6.41;100.00
33280;BME280;20403;43.114;12.434;2023-02-27T00:19:38;98222.94;;;6.42;100.00
33280;BME280;20403;43.114;12.434;2023-02-27T00:22:03;98226.19;;;6.38;100.00
33280;BME280;20403;43.114;12.434;2023-02-27T00:24:28;98231.22;;;6.32;100.00
33280;BME280;20403;43.114;12.434;2023-02-27T00:26:54;98226.81;;;6.33;100.00
33280;BME280;20403;43.114;12.434;2023-02-27T00:29:19;98228.44;;;6.34;100.00
33280;BME280;20403;43.114;12.434;2023-02-27T00:31:45;98237.19;;;6.33;100.00
33280;BME280;20403;43.114;12.434;2023-02-27T00:34:10;98238.41;;;6.30;100.00
33280;BME280;20403;43.114;12.434;2023-02-27T00:36:35;98234.97;;;6.37;100.00
33280;BME280;20403;43.114;12.434;2023-02-27T00:39:01;98245.69;;;6.40;100.00
33280;BME280;20403;43.114;12.434;2023-02-27T00:41:26;98243.13;;;6.40;100.00
33280;BME280;20403;43.114;12.434;2023-02-27T00:43:51;98248.50;;;6.39;100.00
33280;BME280;20403;43.114;12.434;2023-02-27T00:46:17;98245.91;;;6.39;100.00
33280;BME280;20403;43.114;12.434;2023-02-27T00:48:43;98248.69;;;6.37;100.00
33280;BME280;20403;43.114;12.434;2023-02-27T00:51:09;98255.31;;;6.33;100.00
33280;BME280;20403;43.114;12.434;2023-02-27T00:53:34;98260.28;;;6.35;100.00
33280;BME280;20403;43.114;12.434;2023-02-27T00:56:00;98258.13;;;6.31;100.00
33280;BME280;20403;43.114;12.434;2023-02-27T00:58:25;98255.16;;;6.28;100.00
33280;BME280;20403;43.114;12.434;2023-02-27T01:00:50;98264.31;;;6.30;100.00
33280;BME280;20403;43.114;12.434;2023-02-27T01:03:16;98260.19;;;6.23;100.00
33280;BME280;20403;43.114;12.434;2023-02-27T01:05:41;98272.72;;;6.26;100.00
33280;BME280;20403;43.114;12.434;2023-02-27T01:08:07;98275.47;;;6.31;100.00
33280;BME280;20403;43.114;12.434;2023-02-27T01:10:32;98272.50;;;6.27;100.00
33280;BME280;20403;43.114;12.434;2023-02-27T01:12:57;98275.94;;;6.21;100.00
33280;BME280;20403;43.114;12.434;2023-02-27T01:15:23;98274.00;;;6.17;100.00
33280;BME280;20403;43.114;12.434;2023-02-27T01:17:48;98283.06;;;6.26;100.00
33280;BME280;20403;43.114;12.434;2023-02-27T01:20:14;98274.75;;;6.24;100.00
33280;BME280;20403;43.114;12.434;2023-02-27T01:22:40;98277.25;;;6.30;100.00
33280;BME280;20403;43.114;12.434;2023-02-27T01:25:06;98283.00;;;6.32;100.00
33280;BME280;20403;43.114;12.434;2023-02-27T01:27:32;98283.44;;;6.29;100.00
33280;BME280;20403;43.114;12.434;2023-02-27T01:29:58;98289.56;;;6.35;100.00
33280;BME280;20403;43.114;12.434;2023-02-27T01:32:23;98289.50;;;6.42;100.00
33280;BME280;20403;43.114;12.434;2023-02-27T01:34:49;98297.91;;;6.37;100.00
33280;BME280;20403;43.114;12.434;2023-02-27T01:37:14;98303.31;;;6.36;100.00
33280;BME280;20403;43.114;12.434;2023-02-27T01:39:39;98315.16;;;6.25;100.00
33280;BME280;20403;43.114;12.434;2023-02-27T01:42:20;98316.50;;;6.27;100.00
33280;BME280;20403;43.114;12.434;2023-02-27T01:47:59;98329.59;;;6.32;100.00
33280;BME280;20403;43.114;12.434;2023-02-27T01:50:22;98325.44;;;6.31;100.00
33280;BME280;20403;43.114;12.434;2023-02-27T01:52:52;98320.63;;;6.35;100.00
33280;BME280;20403;43.114;12.434;2023-02-27T01:55:19;98327.16;;;6.38;100.00
33280;BME280;20403;43.114;12.434;2023-02-27T01:57:46;98327.53;;;6.41;100.00
33280;BME280;20403;43.114;12.434;2023-02-27T02:00:13;98329.13;;;6.42;100.00
33280;BME280;20403;43.114;12.434;2023-02-27T02:02:42;98332.16;;;6.39;100.00
33280;BME280;20403;43.114;12.434;2023-02-27T02:05:10;98333.31;;;6.43;100.00
33280;BME280;20403;43.114;12.434;2023-02-27T02:07:37;98332.28;;;6.44;100.00
33280;BME280;20403;43.114;12.434;2023-02-27T02:10:05;98338.28;;;6.45;100.00
33280;BME280;20403;43.114;12.434;2023-02-27T02:12:33;98335.25;;;6.48;100.00
33280;BME280;20403;43.114;12.434;2023-02-27T02:14:59;98333.00;;;6.51;100.00
33280;BME280;20403;43.114;12.434;2023-02-27T02:17:34;98326.13;;;6.45;100.00
33280;BME280;20403;43.114;12.434;2023-02-27T02:31:39;98328.00;;;6.57;100.00
33280;BME280;20403;43.114;12.434;2023-02-27T02:55:44;98328.28;;;6.48;100.00
33280;BME280;20403;43.114;12.434;2023-02-27T03:00:48;98334.63;;;6.52;100.00
33280;BME280;20403;43.114;12.434;2023-02-27T03:03:20;98334.41;;;6.54;100.00
33280;BME280;20403;43.114;12.434;2023-02-27T03:05:51;98343.47;;;6.45;100.00
33280;BME280;20403;43.114;12.434;2023-02-27T03:08:27;98344.88;;;6.41;100.00
33280;BME280;20403;43.114;12.434;2023-02-27T03:10:57;98348.84;;;6.43;100.00
33280;BME280;20403;43.114;12.434;2023-02-27T03:13:30;98345.63;;;6.48;100.00
33280;BME280;20403;43.114;12.434;2023-02-27T03:18:55;98349.84;;;6.42;100.00
33280;BME280;20403;43.114;12.434;2023-02-27T03:21:31;98348.00;;;6.49;100.00
33280;BME280;20403;43.114;12.434;2023-02-27T03:24:03;98347.91;;;6.56;100.00
33280;BME280;20403;43.114;12.434;2023-02-27T03:26:36;98348.16;;;6.55;100.00
33280;BME280;20403;43.114;12.434;2023-02-27T03:29:08;98358.53;;;6.29;100.00
33280;BME280;20403;43.114;12.434;2023-02-27T03:31:47;98359.78;;;6.20;100.00
33280;BME280;20403;43.114;12.434;2023-02-27T03:34:20;98358.78;;;6.21;100.00
33280;BME280;20403;43.114;12.434;2023-02-27T03:36:55;98360.41;;;6.16;100.00
33280;BME280;20403;43.114;12.434;2023-02-27T03:47:38;98374.75;;;6.18;100.00
33280;BME280;20403;43.114;12.434;2023-02-27T03:50:04;98369.56;;;6.18;100.00
33280;BME280;20403;43.114;12.434;2023-02-27T03:52:30;98369.56;;;6.18;100.00
33280;BME280;20403;43.114;12.434;2023-02-27T03:55:04;98376.38;;;6.13;100.00
33280;BME280;20403;43.114;12.434;2023-02-27T03:57:32;98379.72;;;6.20;100.00
33280;BME280;20403;43.114;12.434;2023-02-27T03:59:59;98381.03;;;6.29;100.00
33280;BME280;20403;43.114;12.434;2023-02-27T04:02:25;98385.59;;;6.34;100.00
33280;BME280;20403;43.114;12.434;2023-02-27T04:04:51;98387.78;;;6.30;100.00
33280;BME280;20403;43.114;12.434;2023-02-27T04:07:30;98397.31;;;6.36;100.00
33280;BME280;20403;43.114;12.434;2023-02-27T04:16:08;98408.31;;;6.31;100.00
33280;BME280;20403;43.114;12.434;2023-02-27T04:21:32;98403.44;;;6.42;100.00
33280;BME280;20403;43.114;12.434;2023-02-27T04:26:41;98407.72;;;6.55;100.00
33280;BME280;20403;43.114;12.434;2023-02-27T04:34:54;98407.44;;;6.63;100.00
33280;BME280;20403;43.114;12.434;2023-02-27T04:42:20;98427.06;;;6.52;100.00
33280;BME280;20403;43.114;12.434;2023-02-27T04:44:49;98424.69;;;6.50;100.00
33280;BME280;20403;43.114;12.434;2023-02-27T04:47:16;98431.06;;;6.48;100.00
33280;BME280;20403;43.114;12.434;2023-02-27T04:49:47;98434.31;;;6.43;100.00
33280;BME280;20403;43.114;12.434;2023-02-27T04:52:28;98437.09;;;6.42;100.00
33280;BME280;20403;43.114;12.434;2023-02-27T04:55:18;98444.84;;;6.42;100.00
33280;BME280;20403;43.114;12.434;2023-02-27T04:57:50;98444.06;;;6.41;100.00
33280;BME280;20403;43.114;12.434;2023-02-27T05:00:20;98451.22;;;6.46;100.00
33280;BME280;20403;43.114;12.434;2023-02-27T05:02:53;98456.44;;;6.39;100.00
33280;BME280;20403;43.114;12.434;2023-02-27T05:05:25;98462.59;;;6.45;100.00
33280;BME280;20403;43.114;12.434;2023-02-27T05:08:08;98462.19;;;6.41;100.00
33280;BME280;20403;43.114;12.434;2023-02-27T05:10:35;98470.56;;;6.43;100.00
33280;BME280;20403;43.114;12.434;2023-02-27T05:13:10;98467.63;;;6.33;100.00
33280;BME280;20403;43.114;12.434;2023-02-27T05:15:47;98457.03;;;6.41;100.00
33280;BME280;20403;43.114;12.434;2023-02-27T05:18:17;98460.19;;;6.43;100.00
33280;BME280;20403;43.114;12.434;2023-02-27T05:26:53;98456.81;;;6.43;100.00
33280;BME280;20403;43.114;12.434;2023-02-27T05:29:48;98469.38;;;6.39;100.00
33280;BME280;20403;43.114;12.434;2023-02-27T05:32:49;98469.09;;;6.22;100.00
33280;BME280;20403;43.114;12.434;2023-02-27T05:35:19;98468.91;;;6.24;100.00
33280;BME280;20403;43.114;12.434;2023-02-27T05:38:01;98473.03;;;6.31;100.00
33280;BME280;20403;43.114;12.434;2023-02-27T05:40:33;98471.97;;;6.39;100.00
33280;BME280;20403;43.114;12.434;2023-02-27T05:43:18;98477.56;;;6.36;100.00
33280;BME280;20403;43.114;12.434;2023-02-27T05:45:47;98479.63;;;6.27;100.00
33280;BME280;20403;43.114;12.434;2023-02-27T05:48:17;98483.16;;;6.33;100.00
33280;BME280;20403;43.114;12.434;2023-02-27T05:50:47;98482.59;;;6.31;100.00
33280;BME280;20403;43.114;12.434;2023-02-27T05:53:17;98479.31;;;6.42;100.00
33280;BME280;20403;43.114;12.434;2023-02-27T05:55:46;98477.06;;;6.21;100.00
33280;BME280;20403;43.114;12.434;2023-02-27T05:58:25;98481.50;;;6.14;100.00
33280;BME280;20403;43.114;12.434;2023-02-27T06:01:04;98485.06;;;6.19;100.00
33280;BME280;20403;43.114;12.434;2023-02-27T06:03:32;98492.69;;;6.39;100.00
33280;BME280;20403;43.114;12.434;2023-02-27T06:06:00;98495.53;;;6.31;100.00
33280;BME280;20403;43.114;12.434;2023-02-27T06:08:27;98495.53;;;6.31;100.00
33280;BME280;20403;43.114;12.434;2023-02-27T06:10:52;98502.88;;;6.34;100.00
33280;BME280;20403;43.114;12.434;2023-02-27T06:13:20;98506.41;;;6.40;100.00
33280;BME280;20403;43.114;12.434;2023-02-27T06:15:46;98511.00;;;6.38;100.00
33280;BME280;20403;43.114;12.434;2023-02-27T06:18:13;98516.78;;;6.40;100.00
33280;BME280;20403;43.114;12.434;2023-02-27T06:20:40;98514.81;;;6.35;100.00
33280;BME280;20403;43.114;12.434;2023-02-27T06:23:06;98526.78;;;6.36;100.00
33280;BME280;20403;43.114;12.434;2023-02-27T06:25:31;98528.19;;;6.32;100.00
33280;BME280;20403;43.114;12.434;2023-02-27T06:27:57;98530.16;;;6.37;100.00
33280;BME280;20403;43.114;12.434;2023-02-27T06:30:22;98537.13;;;6.36;100.00
33280;BME280;20403;43.114;12.434;2023-02-27T06:32:48;98534.53;;;6.36;100.00
33280;BME280;20403;43.114;12.434;2023-02-27T06:35:13;98533.34;;;6.39;100.00
33280;BME280;20403;43.114;12.434;2023-02-27T06:37:39;98548.66;;;6.40;100.00
33280;BME280;20403;43.114;12.434;2023-02-27T06:40:05;98541.72;;;6.34;100.00
33280;BME280;20403;43.114;12.434;2023-02-27T06:42:35;98545.69;;;6.37;100.00
33280;BME280;20403;43.114;12.434;2023-02-27T06:45:00;98545.09;;;6.35;100.00
33280;BME280;20403;43.114;12.434;2023-02-27T06:47:26;98553.44;;;6.43;100.00
33280;BME280;20403;43.114;12.434;2023-02-27T06:49:51;98550.66;;;6.38;100.00
33280;BME280;20403;43.114;12.434;2023-02-27T06:52:17;98556.38;;;6.47;100.00
33280;BME280;20403;43.114;12.434;2023-02-27T06:54:42;98555.19;;;6.49;100.00
33280;BME280;20403;43.114;12.434;2023-02-27T06:57:07;98562.56;;;6.46;100.00
33280;BME280;20403;43.114;12.434;2023-02-27T06:59:33;98564.00;;;6.35;100.00
33280;BME280;20403;43.114;12.434;2023-02-27T07:01:58;98566.78;;;6.40;100.00
33280;BME280;20403;43.114;12.434;2023-02-27T07:04:24;98575.97;;;6.36;100.00
33280;BME280;20403;43.114;12.434;2023-02-27T07:06:50;98575.75;;;6.38;100.00
33280;BME280;20403;43.114;12.434;2023-02-27T07:09:15;98576.56;;;6.38;100.00
33280;BME280;20403;43.114;12.434;2023-02-27T07:11:41;98579.31;;;6.43;100.00
33280;BME280;20403;43.114;12.434;2023-02-27T07:14:06;98583.69;;;6.49;100.00
33280;BME280;20403;43.114;12.434;2023-02-27T07:16:32;98577.66;;;6.56;100.00
33280;BME280;20403;43.114;12.434;2023-02-27T07:18:57;98585.97;;;6.64;100.00
33280;BME280;20403;43.114;12.434;2023-02-27T07:21:23;98589.75;;;6.68;100.00
33280;BME280;20403;43.114;12.434;2023-02-27T07:23:48;98591.13;;;6.71;100.00
33280;BME280;20403;43.114;12.434;2023-02-27T07:26:13;98589.13;;;6.73;100.00
33280;BME280;20403;43.114;12.434;2023-02-27T07:28:39;98587.72;;;6.77;100.00
33280;BME280;20403;43.114;12.434;2023-02-27T07:31:04;98595.31;;;6.65;100.00
33280;BME280;20403;43.114;12.434;2023-02-27T07:33:30;98598.72;;;6.66;100.00
33280;BME280;20403;43.114;12.434;2023-02-27T07:35:56;98599.47;;;6.73;100.00
33280;BME280;20403;43.114;12.434;2023-02-27T07:38:22;98601.28;;;6.72;100.00
33280;BME280;20403;43.114;12.434;2023-02-27T07:40:48;98601.84;;;6.74;100.00
33280;BME280;20403;43.114;12.434;2023-02-27T07:43:14;98599.81;;;6.83;100.00
33280;BME280;20403;43.114;12.434;2023-02-27T07:45:39;98602.13;;;6.98;100.00
33280;BME280;20403;43.114;12.434;2023-02-27T07:48:05;98606.47;;;6.98;100.00
33280;BME280;20403;43.114;12.434;2023-02-27T07:50:30;98611.44;;;7.06;100.00
33280;BME280;20403;43.114;12.434;2023-02-27T07:52:56;98615.19;;;7.10;100.00
33280;BME280;20403;43.114;12.434;2023-02-27T07:55:21;98611.91;;;7.21;100.00
33280;BME280;20403;43.114;12.434;2023-02-27T07:57:46;98621.81;;;7.31;100.00
33280;BME280;20403;43.114;12.434;2023-02-27T08:00:13;98621.47;;;7.21;100.00
33280;BME280;20403;43.114;12.434;2023-02-27T08:02:38;98623.19;;;7.33;100.00
33280;BME280;20403;43.114;12.434;2023-02-27T08:05:04;98630.03;;;7.28;100.00
33280;BME280;20403;43.114;12.434;2023-02-27T08:07:30;98627.31;;;7.41;100.00
33280;BME280;20403;43.114;12.434;2023-02-27T08:09:55;98634.13;;;7.35;100.00
33280;BME280;20403;43.114;12.434;2023-02-27T08:12:21;98630.84;;;7.22;100.00
33280;BME280;20403;43.114;12.434;2023-02-27T08:14:47;98635.03;;;7.23;100.00
33280;BME280;20403;43.114;12.434;2023-02-27T08:17:12;98639.41;;;7.22;100.00
33280;BME280;20403;43.114;12.434;2023-02-27T08:19:38;98642.13;;;7.34;100.00
33280;BME280;20403;43.114;12.434;2023-02-27T08:22:03;98638.16;;;7.31;100.00
33280;BME280;20403;43.114;12.434;2023-02-27T08:24:29;98644.13;;;7.32;100.00
33280;BME280;20403;43.114;12.434;2023-02-27T08:26:54;98638.75;;;7.33;100.00
33280;BME280;20403;43.114;12.434;2023-02-27T08:29:21;98638.22;;;7.25;100.00
33280;BME280;20403;43.114;12.434;2023-02-27T08:31:46;98637.56;;;7.29;100.00
33280;BME280;20403;43.114;12.434;2023-02-27T08:34:12;98644.88;;;7.39;100.00
33280;BME280;20403;43.114;12.434;2023-02-27T08:36:38;98647.47;;;7.39;100.00
33280;BME280;20403;43.114;12.434;2023-02-27T08:39:05;98645.84;;;7.45;100.00
33280;BME280;20403;43.114;12.434;2023-02-27T08:41:30;98640.38;;;7.53;100.00
33280;BME280;20403;43.114;12.434;2023-02-27T08:43:56;98650.44;;;7.43;100.00
33280;BME280;20403;43.114;12.434;2023-02-27T08:46:21;98646.25;;;7.42;100.00
33280;BME280;20403;43.114;12.434;2023-02-27T08:48:47;98645.31;;;7.36;100.00
33280;BME280;20403;43.114;12.434;2023-02-27T08:51:12;98649.06;;;7.40;100.00
33280;BME280;20403;43.114;12.434;2023-02-27T08:53:37;98647.47;;;7.39;100.00
33280;BME280;20403;43.114;12.434;2023-02-27T08:56:03;98649.03;;;7.47;100.00
33280;BME280;20403;43.114;12.434;2023-02-27T08:58:29;98651.38;;;7.48;100.00
33280;BME280;20403;43.114;12.434;2023-02-27T09:00:54;98654.25;;;7.65;100.00
33280;BME280;20403;43.114;12.434;2023-02-27T09:03:20;98658.47;;;7.60;100.00
33280;BME280;20403;43.114;12.434;2023-02-27T09:05:47;98657.25;;;7.62;100.00
33280;BME280;20403;43.114;12.434;2023-02-27T09:08:13;98669.81;;;7.65;100.00
33280;BME280;20403;43.114;12.434;2023-02-27T09:10:39;98676.97;;;7.70;100.00
33280;BME280;20403;43.114;12.434;2023-02-27T09:13:04;98673.63;;;7.63;100.00
33280;BME280;20403;43.114;12.434;2023-02-27T09:15:30;98678.97;;;7.68;100.00
33280;BME280;20403;43.114;12.434;2023-02-27T09:17:58;98685.59;;;7.64;100.00
33280;BME280;20403;43.114;12.434;2023-02-27T09:20:28;98694.31;;;7.69;100.00
33280;BME280;20403;43.114;12.434;2023-02-27T09:22:53;98689.75;;;7.65;100.00
33280;BME280;20403;43.114;12.434;2023-02-27T09:25:19;98700.53;;;7.68;100.00
33280;BME280;20403;43.114;12.434;2023-02-27T09:27:44;98704.16;;;7.67;100.00
33280;BME280;20403;43.114;12.434;2023-02-27T09:30:10;98699.59;;;7.63;100.00
33280;BME280;20403;43.114;12.434;2023-02-27T09:32:36;98700.53;;;7.68;100.00
33280;BME280;20403;43.114;12.434;2023-02-27T09:35:02;98704.88;;;7.74;100.00
33280;BME280;20403;43.114;12.434;2023-02-27T09:37:27;98705.66;;;7.75;100.00
33280;BME280;20403;43.114;12.434;2023-02-27T09:39:53;98713.59;;;7.80;100.00
33280;BME280;20403;43.114;12.434;2023-02-27T09:42:22;98714.56;;;7.86;100.00
33280;BME280;20403;43.114;12.434;2023-02-27T09:44:51;98715.72;;;7.90;100.00
33280;BME280;20403;43.114;12.434;2023-02-27T09:47:28;98721.72;;;7.90;100.00
33280;BME280;20403;43.114;12.434;2023-02-27T09:50:06;98722.72;;;7.89;100.00
33280;BME280;20403;43.114;12.434;2023-02-27T09:52:35;98729.00;;;8.00;100.00
33280;BME280;20403;43.114;12.434;2023-02-27T09:55:03;98730.19;;;8.04;100.00
33280;BME280;20403;43.114;12.434;2023-02-27T09:58:04;98720.28;;;8.13;100.00
33280;BME280;20403;43.114;12.434;2023-02-27T10:00:48;98727.28;;;8.12;100.00
33280;BME280;20403;43.114;12.434;2023-02-27T10:11:22;98730.88;;;8.36;100.00
33280;BME280;20403;43.114;12.434;2023-02-27T10:14:17;98733.53;;;8.30;100.00
33280;BME280;20403;43.114;12.434;2023-02-27T10:16:51;98736.97;;;8.24;100.00
33280;BME280;20403;43.114;12.434;2023-02-27T10:19:25;98733.28;;;8.31;100.00
33280;BME280;20403;43.114;12.434;2023-02-27T10:21:52;98733.97;;;8.45;100.00
33280;BME280;20403;43.114;12.434;2023-02-27T10:24:36;98733.41;;;8.43;100.00
33280;BME280;20403;43.114;12.434;2023-02-27T10:27:05;98740.91;;;8.51;100.00
33280;BME280;20403;43.114;12.434;2023-02-27T10:29:34;98745.47;;;8.56;100.00
33280;BME280;20403;43.114;12.434;2023-02-27T10:32:21;98744.38;;;8.63;100.00
33280;BME280;20403;43.114;12.434;2023-02-27T10:34:58;98740.72;;;8.71;100.00
33280;BME280;20403;43.114;12.434;2023-02-27T10:37:27;98735.47;;;8.90;100.00
33280;BME280;20403;43.114;12.434;2023-02-27T10:39:57;98736.31;;;9.02;100.00
33280;BME280;20403;43.114;12.434;2023-02-27T10:42:31;98727.69;;;9.20;100.00
33280;BME280;20403;43.114;12.434;2023-02-27T10:44:59;98729.06;;;9.34;100.00
33280;BME280;20403;43.114;12.434;2023-02-27T10:47:25;98735.31;;;9.45;100.00
33280;BME280;20403;43.114;12.434;2023-02-27T10:49:52;98732.03;;;9.50;100.00
33280;BME280;20403;43.114;12.434;2023-02-27T10:52:19;98727.84;;;9.37;100.00
33280;BME280;20403;43.114;12.434;2023-02-27T10:54:45;98734.53;;;9.44;100.00
33280;BME280;20403;43.114;12.434;2023-02-27T10:57:29;98738.16;;;9.43;100.00
33280;BME280;20403;43.114;12.434;2023-02-27T10:59:58;98738.19;;;9.67;100.00
33280;BME280;20403;43.114;12.434;2023-02-27T11:02:30;98732.78;;;10.16;100.00
33280;BME280;20403;43.114;12.434;2023-02-27T11:05:00;98734.94;;;10.42;100.00
33280;BME280;20403;43.114;12.434;2023-02-27T11:07:46;98741.41;;;10.40;100.00
33280;BME280;20403;43.114;12.434;2023-02-27T11:10:26;98742.97;;;10.17;100.00
33280;BME280;20403;43.114;12.434;2023-02-27T11:13:06;98737.88;;;10.22;100.00
33280;BME280;20403;43.114;12.434;2023-02-27T11:15:42;98740.13;;;10.07;100.00
33280;BME280;20403;43.114;12.434;2023-02-27T11:18:19;98743.19;;;10.04;100.00
33280;BME280;20403;43.114;12.434;2023-02-27T11:20:46;98738.09;;;9.85;100.00
33280;BME280;20403;43.114;12.434;2023-02-27T11:23:21;98746.22;;;9.77;100.00
33280;BME280;20403;43.114;12.434;2023-02-27T11:25:47;98744.66;;;9.64;100.00
33280;BME280;20403;43.114;12.434;2023-02-27T11:28:27;98742.81;;;9.53;100.00
33280;BME280;20403;43.114;12.434;2023-02-27T11:31:00;98737.88;;;9.75;100.00
33280;BME280;20403;43.114;12.434;2023-02-27T11:33:28;98736.03;;;9.64;100.00
33280;BME280;20403;43.114;12.434;2023-02-27T11:35:56;98738.41;;;9.65;100.00
33280;BME280;20403;43.114;12.434;2023-02-27T11:38:25;98740.00;;;9.55;100.00
33280;BME280;20403;43.114;12.434;2023-02-27T11:40:57;98735.22;;;9.52;100.00
33280;BME280;20403;43.114;12.434;2023-02-27T11:43:26;98734.53;;;9.56;100.00
33280;BME280;20403;43.114;12.434;2023-02-27T11:46:01;98740.41;;;9.52;100.00
33280;BME280;20403;43.114;12.434;2023-02-27T11:48:34;98731.72;;;9.46;100.00
33280;BME280;20403;43.114;12.434;2023-02-27T11:56:13;98731.41;;;9.66;100.00
33280;BME280;20403;43.114;12.434;2023-02-27T11:59:04;98736.16;;;9.57;100.00
33280;BME280;20403;43.114;12.434;2023-02-27T12:01:54;98730.03;;;9.63;100.00
33280;BME280;20403;43.114;12.434;2023-02-27T12:05:18;98732.97;;;9.67;100.00
33280;BME280;20403;43.114;12.434;2023-02-27T12:07:52;98730.06;;;9.75;100.00
33280;BME280;20403;43.114;12.434;2023-02-27T12:10:26;98723.84;;;9.88;100.00
33280;BME280;20403;43.114;12.434;2023-02-27T12:15:29;98735.84;;;10.01;100.00
33280;BME280;20403;43.114;12.434;2023-02-27T12:21:00;98734.50;;;10.10;100.00
33280;BME280;20403;43.114;12.434;2023-02-27T12:26:05;98730.94;;;10.28;100.00
33280;BME280;20403;43.114;12.434;2023-02-27T12:28:38;98733.91;;;10.20;100.00
33280;BME280;20403;43.114;12.434;2023-02-27T12:36:33;98748.63;;;10.14;100.00
33280;BME280;20403;43.114;12.434;2023-02-27T12:38:59;98751.22;;;10.14;100.00
33280;BME280;20403;43.114;12.434;2023-02-27T12:41:32;98747.28;;;10.00;100.00
33280;BME280;20403;43.114;12.434;2023-02-27T12:47:33;98762.91;;;9.88;100.00
33280;BME280;20403;43.114;12.434;2023-02-27T12:50:18;98762.34;;;9.98;100.00
33280;BME280;20403;43.114;12.434;2023-02-27T12:53:14;98768.47;;;9.92;100.00
33280;BME280;20403;43.114;12.434;2023-02-27T12:55:52;98771.97;;;9.97;100.00
33280;BME280;20403;43.114;12.434;2023-02-27T13:03:49;98779.19;;;9.83;100.00
33280;BME280;20403;43.114;12.434;2023-02-27T13:06:43;98784.06;;;9.80;100.00
33280;BME280;20403;43.114;12.434;2023-02-27T13:12:02;98794.88;;;9.53;100.00
33280;BME280;20403;43.114;12.434;2023-02-27T13:17:22;98801.41;;;9.44;100.00
33280;BME280;20403;43.114;12.434;2023-02-27T13:19:54;98797.56;;;9.46;100.00
33280;BME280;20403;43.114;12.434;2023-02-27T13:22:46;98793.34;;;9.34;100.00
33280;BME280;20403;43.114;12.434;2023-02-27T13:25:16;98800.78;;;9.30;100.00
33280;BME280;20403;43.114;12.434;2023-02-27T13:27:46;98809.63;;;9.29;100.00
33280;BME280;20403;43.114;12.434;2023-02-27T13:30:19;98808.38;;;9.32;100.00
33280;BME280;20403;43.114;12.434;2023-02-27T13:38:48;98810.41;;;9.30;100.00
33280;BME280;20403;43.114;12.434;2023-02-27T13:43:48;98802.75;;;9.46;100.00
33280;BME280;20403;43.114;12.434;2023-02-27T13:48:46;98821.75;;;9.47;100.00
33280;BME280;20403;43.114;12.434;2023-02-27T13:56:46;98818.25;;;9.41;100.00
33280;BME280;20403;43.114;12.434;2023-02-27T14:04:56;98805.97;;;9.60;100.00
33280;BME280;20403;43.114;12.434;2023-02-27T14:07:27;98807.34;;;9.63;100.00
33280;BME280;20403;43.114;12.434;2023-02-27T14:10:01;98811.84;;;9.56;100.00
33280;BME280;20403;43.114;12.434;2023-02-27T14:12:33;98803.91;;;9.51;100.00
33280;BME280;20403;43.114;12.434;2023-02-27T14:15:01;98802.66;;;9.53;100.00
33280;BME280;20403;43.114;12.434;2023-02-27T14:25:12;98814.44;;;9.56;100.00
33280;BME280;20403;43.114;12.434;2023-02-27T14:30:23;98821.31;;;9.80;100.00
33280;BME280;20403;43.114;12.434;2023-02-27T14:32:54;98824.13;;;9.79;100.00
33280;BME280;20403;43.114;12.434;2023-02-27T14:35:21;98814.28;;;9.81;100.00
33280;BME280;20403;43.114;12.434;2023-02-27T14:37:47;98818.72;;;9.80;100.00
33280;BME280;20403;43.114;12.434;2023-02-27T14:40:26;98824.03;;;9.85;100.00
33280;BME280;20403;43.114;12.434;2023-02-27T14:42:59;98817.78;;;9.75;100.00
33280;BME280;20403;43.114;12.434;2023-02-27T14:45:28;98814.84;;;9.71;100.00
33280;BME280;20403;43.114;12.434;2023-02-27T14:47:55;98821.19;;;9.75;100.00
33280;BME280;20403;43.114;12.434;2023-02-27T14:50:31;98822.47;;;9.84;100.00
33280;BME280;20403;43.114;12.434;2023-02-27T14:53:00;98823.38;;;10.02;100.00
33280;BME280;20403;43.114;12.434;2023-02-27T14:55:29;98819.44;;;10.11;100.00
33280;BME280;20403;43.114;12.434;2023-02-27T14:58:14;98821.25;;;10.10;100.00
33280;BME280;20403;43.114;12.434;2023-02-27T15:00:44;98817.63;;;10.23;100.00
33280;BME280;20403;43.114;12.434;2023-02-27T15:03:20;98825.69;;;10.10;100.00
33280;BME280;20403;43.114;12.434;2023-02-27T15:05:52;98821.81;;;10.13;100.00
33280;BME280;20403;43.114;12.434;2023-02-27T15:08:30;98817.28;;;10.08;100.00
33280;BME280;20403;43.114;12.434;2023-02-27T15:10:57;98827.34;;;10.04;100.00
33280;BME280;20403;43.114;12.434;2023-02-27T15:13:27;98830.50;;;9.95;100.00
33280;BME280;20403;43.114;12.434;2023-02-27T15:16:28;98835.56;;;9.78;100.00
33280;BME280;20403;43.114;12.434;2023-02-27T15:19:16;98839.91;;;9.54;100.00
33280;BME280;20403;43.114;12.434;2023-02-27T15:21:48;98842.25;;;9.43;100.00
33280;BME280;20403;43.114;12.434;2023-02-27T15:24:29;98846.88;;;9.41;100.00
33280;BME280;20403;43.114;12.434;2023-02-27T15:27:04;98837.56;;;9.34;100.00
33280;BME280;20403;43.114;12.434;2023-02-27T15:29:35;98845.09;;;9.23;100.00
33280;BME280;20403;43.114;12.434;2023-02-27T15:32:03;98842.41;;;9.30;100.00
33280;BME280;20403;43.114;12.434;2023-02-27T15:34:28;98836.91;;;9.38;100.00
33280;BME280;20403;43.114;12.434;2023-02-27T15:36:56;98842.31;;;9.37;100.00